EW4987 Weather Reports


Display with metric or nautical units.
time (UTC)temp
F
wind
direction
speed
MPH
gust
MPH
rain 1hr
in
rain 24hr
in
rain mn
in
humidity
%
barometer
mb
20240523191522 45 257 5.0 17.0 0.00 0.00 0.00 41 1010.4
20240523190021 44 281 16.0 25.0 0.00 0.00 0.00 43 1010.4
20240523184514 43 228 13.0 28.0 0.00 0.00 0.00 46 1010.4
20240523183011 45 282 13.0 22.0 0.00 0.00 0.00 47 1010.1
20240523181505 43 288 16.0 25.0 0.00 0.00 0.00 45 1009.9
20240523180102 44 258 15.0 27.0 0.00 0.00 0.00 44 1009.7
20240523174555 43 241 16.0 25.0 0.00 0.00 0.00 47 1009.7
20240523173056 43 273 20.0 28.0 0.00 0.00 0.00 46 1009.4
20240523171554 43 287 16.0 25.0 0.00 0.00 0.00 36 1009.2
20240523170045 41 252 13.0 20.0 0.00 0.00 0.00 34 1008.8
20240523164544 41 271 15.0 19.0 0.00 0.00 0.00 39 1008.4
20240523163045 40 288 15.0 20.0 0.00 0.00 0.00 46 1008.3
20240523161533 40 286 13.0 20.0 0.00 0.00 0.00 47 1008.1
20240523160038 41 292 14.0 25.0 0.00 0.00 0.00 47 1007.7
20240523154520 42 232 9.0 16.0 0.00 0.00 0.00 47 1007.2
20240523153016 42 252 11.0 24.0 0.00 0.00 0.00 46 1007.0
20240523151512 43 234 10.0 25.0 0.00 0.00 0.00 45 1006.6
20240523150009 43 244 9.0 23.0 0.00 0.00 0.00 46 1006.4
20240523144507 43 220 3.0 17.0 0.00 0.00 0.00 45 1006.3
20240523143109 42 232 8.0 15.0 0.00 0.00 0.00 47 1006.4
20240523141621 42 218 6.0 11.0 0.00 0.00 0.00 45 1006.5
20240523140055 42 207 7.0 12.0 0.00 0.00 0.00 41 1006.4
20240523134550 42 209 4.0 12.0 0.00 0.00 0.00 40 1006.2
20240523133056 41 201 3.0 9.0 0.00 0.00 0.00 36 1006.2
20240523131541 41 203 6.0 13.0 0.00 0.00 0.00 39 1006.0
20240523130031 41 199 4.0 12.0 0.00 0.00 0.00 47 1005.9
20240523124527 42 200 0.0 9.0 0.00 0.00 0.00 44 1005.7
20240523123022 41 228 3.0 8.0 0.00 0.00 0.00 38 1005.7
20240523121527 41 209 1.0 7.0 0.00 0.00 0.00 32 1005.6
20240523120016 42 161 1.0 5.0 0.00 0.00 0.00 36 1005.5
20240523114509 42 204 1.0 8.0 0.00 0.00 0.00 38 1005.8
20240523113005 41 233 2.0 7.0 0.00 0.00 0.00 40 1006.1
20240523111609 41 318 0.0 6.0 0.00 0.00 0.00 22 1006.4
20240523110102 42 321 0.0 0.0 0.00 0.00 0.00 1 1006.3
20240523104555 41 319 1.0 6.0 0.00 0.00 0.00 21 1006.6
20240523103047 42 327 5.0 11.0 0.00 0.00 0.00 3 1006.8
20240523101545 42 336 0.0 5.0 0.00 0.00 0.00 1 1006.8
20240523100038 42 329 1.0 3.0 0.00 0.00 0.00 1 1006.7
20240523094535 43 12 3.0 10.0 0.00 0.00 0.00 1 1006.7
20240523093029 43 329 6.0 12.0 0.00 0.00 0.00 1 1006.5
20240523091525 44 326 0.0 0.0 0.00 0.00 0.00 1 1006.3
20240523090020 44 348 0.0 4.0 0.00 0.00 0.00 1 1006.0
20240523084515 44 336 1.0 5.0 0.00 0.00 0.00 1 1005.8
20240523083011 45 327 2.0 6.0 0.00 0.00 0.00 6 1005.6
20240523081507 46 15 2.0 8.0 0.00 0.00 0.00 18 1005.7
20240523080002 46 153 7.0 12.0 0.00 0.00 0.00 25 1005.4
20240523074558 45 323 8.0 12.0 0.00 0.00 0.00 10 1004.8
20240523073054 46 320 0.0 0.0 0.00 0.00 0.00 18 1004.3
20240523071549 47 305 9.0 14.0 0.00 0.00 0.00 25 1004.2
20240523070045 47 238 12.0 18.0 0.00 0.00 0.00 25 1003.5
20240523064543 48 280 18.0 29.0 0.00 0.00 0.00 26 1002.7
20240523063041 49 280 19.0 30.0 0.00 0.00 0.00 24 1002.1
20240523061533 50 262 26.0 35.0 0.00 0.00 0.00 31 1001.5
20240523060029 52 256 25.0 32.0 0.00 0.00 0.00 40 1001.1
20240523054524 57 269 21.0 31.0 0.00 0.00 0.00 39 1000.6
20240523053025 59 279 11.0 18.0 0.00 0.00 0.00 34 1000.0
20240523051515 59 283 7.0 10.0 0.00 0.00 0.00 34 999.9
20240523050016 62 249 6.0 19.0 0.00 0.00 0.00 26 999.8
20240523044522 62 238 5.0 12.0 0.00 0.00 0.00 25 999.8
20240523043006 63 227 5.0 12.0 0.00 0.00 0.00 23 999.5
20240523041557 64 250 9.0 14.0 0.00 0.00 0.00 22 999.2
20240523040054 64 234 10.0 24.0 0.00 0.00 0.00 23 999.4
20240523034552 59 186 0.0 5.0 0.00 0.00 0.00 32 999.7
20240523033050 59 32 0.0 0.0 0.00 0.00 0.00 34 999.6
20240523031547 60 209 0.0 4.0 0.00 0.00 0.00 29 999.6
20240523030035 60 207 0.0 0.0 0.00 0.00 0.00 27 999.4
20240523024544 60 216 0.0 0.0 0.00 0.00 0.00 29 999.5
20240523023026 61 197 0.0 6.0 0.00 0.00 0.00 28 999.7
20240523021529 61 207 0.0 0.0 0.00 0.00 0.00 29 999.9
20240523020032 62 209 0.0 2.0 0.00 0.00 0.00 28 1000.1
20240523014513 64 202 0.0 10.0 0.00 0.00 0.00 24 1000.2
20240523013008 64 207 5.0 10.0 0.00 0.00 0.00 23 1000.4
20240523011504 64 208 5.0 12.0 0.00 0.00 0.00 21 1000.7
20240523010101 64 180 3.0 18.0 0.00 0.00 0.00 22 1000.9
20240523004554 64 223 3.0 12.0 0.00 0.00 0.00 22 1001.2
20240523003050 66 208 8.0 20.0 0.00 0.00 0.00 22 1001.3
20240523001546 66 201 9.0 21.0 0.00 0.00 0.00 22 1001.5
20240523000043 66 211 11.0 24.0 0.00 0.00 0.00 22 1001.9
20240522234536 66 167 7.0 17.0 0.00 0.00 0.00 23 1002.1
20240522233043 65 228 7.0 21.0 0.00 0.00 0.00 23 1002.6
20240522231536 66 200 0.0 14.0 0.00 0.00 0.00 21 1002.9
20240522230023 65 228 8.0 21.0 0.00 0.00 0.00 23 1003.4
20240522224517 66 215 3.0 15.0 0.00 0.00 0.00 23 1003.6
20240522223015 65 213 8.0 17.0 0.00 0.00 0.00 21 1003.8
20240522221509 65 209 5.0 21.0 0.00 0.00 0.00 24 1004.1
20240522220015 64 217 8.0 22.0 0.00 0.00 0.00 26 1004.5
20240522214604 64 173 7.0 20.0 0.00 0.00 0.00 22 1004.8
20240522213059 62 215 9.0 20.0 0.00 0.00 0.00 24 1005.3
20240522211551 61 261 11.0 18.0 0.00 0.00 0.00 25 1005.9
20240522210047 63 282 14.0 26.0 0.00 0.00 0.00 24 1006.0
20240522204541 62 282 15.0 27.0 0.00 0.00 0.00 24 1006.2
20240522203037 63 239 12.0 25.0 0.00 0.00 0.00 25 1006.5
20240522201541 61 239 9.0 21.0 0.00 0.00 0.00 20 1006.7
20240522200028 61 169 8.0 17.0 0.00 0.00 0.00 21 1006.9
20240522194523 62 210 12.0 20.0 0.00 0.00 0.00 19 1007.0
20240522193025 60 252 9.0 22.0 0.00 0.00 0.00 22 1007.4